Time;durP1;ratioP1;P1;durP2;ratioP2;P2;SDS_P1;SDS_P2;PMS_P1;PMS_P2;Temp;Humidity;BMP_temperature;BMP_pressure;BME280_temperature;BME280_humidity;BME280_pressure;Samples;Min_cycle;Max_cycle;Signal;HPM_P1;HPM_P2
2021/12/25 00:03:06;;;;;;;3.42;1.38;;;;;;;-2.15;100.00;101063.00;4721910;30;20547;-76
2021/12/25 00:05:38;;;;;;;7.75;1.60;;;;;;;-2.18;100.00;101070.56;4714453;30;20052;-76
2021/12/25 00:08:10;;;;;;;1.60;1.40;;;;;;;-2.20;100.00;101072.16;4699738;30;20293;-79
2021/12/25 00:10:38;;;;;;;3.33;1.20;;;;;;;-2.21;100.00;101075.53;4704703;30;20044;-76
2021/12/25 00:13:07;;;;;;;6.55;1.50;;;;;;;-2.24;100.00;101083.13;4725370;30;20052;-76
2021/12/25 00:15:36;;;;;;;1.67;1.30;;;;;;;-2.27;100.00;101094.19;4722802;30;20071;-76
2021/12/25 00:18:05;;;;;;;2.33;1.55;;;;;;;-2.28;100.00;101076.00;4717236;30;20067;-75
2021/12/25 00:20:35;;;;;;;2.42;1.60;;;;;;;-2.30;100.00;101093.09;4733260;30;20044;-76
2021/12/25 00:23:06;;;;;;;3.10;0.88;;;;;;;-2.32;100.00;101092.13;4730389;30;20056;-75
2021/12/25 00:25:40;;;;;;;3.55;1.45;;;;;;;-2.34;100.00;101092.03;4716029;30;20056;-75
2021/12/25 00:36:11;;;;;;;1.55;1.23;;;;;;;-2.53;99.96;101096.88;4716981;30;20083;-76
2021/12/25 00:38:43;;;;;;;1.42;1.33;;;;;;;-2.57;98.67;101112.19;4727297;30;20398;-75
2021/12/25 00:41:15;;;;;;;2.35;0.95;;;;;;;-2.60;98.33;101111.09;4713398;30;20057;-75
2021/12/25 00:43:47;;;;;;;2.50;1.20;;;;;;;-2.64;97.41;101111.72;4715108;30;20044;-75
2021/12/25 00:46:15;;;;;;;4.50;1.20;;;;;;;-2.66;97.58;101118.50;4695984;30;20178;-75
2021/12/25 00:48:44;;;;;;;1.75;1.63;;;;;;;-2.72;96.81;101124.16;4724784;30;20411;-75
2021/12/25 00:51:13;;;;;;;3.45;1.20;;;;;;;-2.72;99.45;101124.16;4708001;30;20297;-75
2021/12/25 00:53:45;;;;;;;4.82;1.60;;;;;;;-2.71;99.22;101125.94;4751388;30;20059;-75
2021/12/25 00:56:13;;;;;;;1.27;0.90;;;;;;;-2.71;99.14;101125.03;4723037;30;20542;-75
2021/12/25 00:58:42;;;;;;;1.95;1.10;;;;;;;-2.71;100.00;101127.63;4730139;30;20048;-75
2021/12/25 01:01:11;;;;;;;1.92;1.42;;;;;;;-2.73;100.00;101122.38;4723595;30;20185;-75
2021/12/25 01:03:40;;;;;;;1.73;1.63;;;;;;;-2.73;100.00;101134.38;4708572;30;20043;-76
2021/12/25 01:06:11;;;;;;;2.20;1.15;;;;;;;-2.79;96.76;101132.31;4728116;30;20055;-75
2021/12/25 01:08:40;;;;;;;1.00;1.00;;;;;;;-2.81;93.75;101133.91;4752095;30;20055;-75
2021/12/25 01:11:09;;;;;;;4.35;1.20;;;;;;;-2.84;94.00;101138.88;4753119;30;20052;-76
2021/12/25 01:13:44;;;;;;;3.90;1.30;;;;;;;-2.83;95.85;101145.84;4736574;30;20047;-76
2021/12/25 01:30:32;;;;;;;1.05;0.95;;;;;;;-2.93;92.73;101149.50;4712511;30;20107;-75
2021/12/25 01:33:26;;;;;;;5.07;1.52;;;;;;;-2.95;90.09;101157.16;4726580;30;20131;-75
2021/12/25 01:47:56;;;;;;;0.80;0.80;;;;;;;-2.97;86.05;101166.50;4722505;30;20048;-77
2021/12/25 01:50:29;;;;;;;1.90;0.95;;;;;;;-2.95;89.44;101151.09;4721698;30;20052;-76
2021/12/25 01:52:57;;;;;;;0.88;0.88;;;;;;;-2.95;89.30;101162.31;4707302;30;20049;-76
2021/12/25 01:55:29;;;;;;;1.42;1.20;;;;;;;-2.96;90.19;101170.84;4726084;30;20048;-77
2021/12/25 01:58:02;;;;;;;2.22;1.00;;;;;;;-2.99;83.52;101180.06;4711647;30;20048;-76
2021/12/25 02:00:33;;;;;;;3.17;0.98;;;;;;;-2.98;88.16;101168.97;4772986;30;20052;-78
2021/12/25 02:03:03;;;;;;;;;;;;;;;-3.02;82.95;101178.19;4735707;30;20059;-78
2021/12/25 02:05:33;;;;;;;2.70;1.10;;;;;;;-3.00;87.15;101165.41;4704024;30;19934;-77
2021/12/25 02:08:24;;;;;;;1.77;1.35;;;;;;;-3.03;85.84;101158.34;4708310;30;20425;-78
2021/12/25 02:10:56;;;;;;;2.17;0.90;;;;;;;-3.04;87.47;101164.31;4685524;30;20056;-77
2021/12/25 02:13:25;;;;;;;3.20;0.98;;;;;;;-3.06;87.03;101168.50;4723561;30;20047;-77
2021/12/25 02:15:57;;;;;;;1.00;0.93;;;;;;;-3.07;88.12;101173.53;4715792;30;20680;-79
2021/12/25 02:18:55;;;;;;;2.40;1.00;;;;;;;-3.09;87.95;101172.56;4740395;30;20055;-77
2021/12/25 02:21:36;;;;;;;2.95;1.02;;;;;;;-3.08;90.61;101174.31;4740811;30;20048;-78
2021/12/25 02:24:08;;;;;;;2.53;1.20;;;;;;;-3.10;90.33;101173.34;4704320;30;20064;-77
2021/12/25 02:26:43;;;;;;;2.20;2.00;;;;;;;-3.13;90.68;101164.63;4719676;30;20044;-78
2021/12/25 02:29:12;;;;;;;1.27;1.00;;;;;;;-3.15;90.45;101173.94;4722129;30;20059;-77
2021/12/25 02:31:43;;;;;;;2.47;1.10;;;;;;;-3.17;88.92;101169.50;4713820;30;20036;-78
2021/12/25 02:34:12;;;;;;;1.90;1.35;;;;;;;-3.19;88.87;101186.56;4663872;30;20075;-77
2021/12/25 02:36:42;;;;;;;1.33;1.17;;;;;;;-3.20;88.23;101184.75;4714551;30;20538;-77
2021/12/25 02:39:11;;;;;;;1.40;1.10;;;;;;;-3.22;89.27;101182.06;4707114;30;20383;-79
2021/12/25 02:41:40;;;;;;;0.80;0.80;;;;;;;-3.21;92.17;101191.63;4720756;30;20060;-77
2021/12/25 02:44:09;;;;;;;2.20;0.90;;;;;;;-3.22;90.85;101194.97;4703623;30;20052;-77
2021/12/25 02:46:48;;;;;;;2.05;1.00;;;;;;;-3.24;89.16;101200.81;4702090;30;20044;-77
2021/12/25 02:49:17;;;;;;;0.80;0.80;;;;;;;-3.25;89.92;101189.63;4706618;30;20059;-77
2021/12/25 02:51:46;;;;;;;3.55;1.10;;;;;;;-3.26;90.88;101200.72;4708311;30;20044;-78
2021/12/25 02:54:19;;;;;;;2.25;1.10;;;;;;;-3.30;87.67;101193.59;4748350;30;20049;-77
2021/12/25 02:56:48;;;;;;;1.08;1.00;;;;;;;-3.33;88.49;101198.53;4730651;30;20407;-77
2021/12/25 02:59:17;;;;;;;1.40;1.30;;;;;;;-3.36;87.33;101204.41;4723526;30;20052;-78
2021/12/25 03:02:12;;;;;;;1.45;0.80;;;;;;;-3.37;88.87;101202.59;4742645;30;20162;-77
2021/12/25 03:04:45;;;;;;;3.63;1.48;;;;;;;-3.38;90.18;101199.94;4728682;30;20053;-78
2021/12/25 03:07:14;;;;;;;1.75;0.90;;;;;;;-3.39;90.40;101201.59;4729042;30;20200;-78
2021/12/25 03:09:43;;;;;;;1.17;1.00;;;;;;;-3.39;89.82;101211.91;4698536;30;20060;-78
2021/12/25 03:12:14;;;;;;;1.20;1.10;;;;;;;-3.44;87.71;101199.53;4740493;30;20154;-78
2021/12/25 03:17:35;;;;;;;0.90;0.90;;;;;;;-3.47;90.87;101199.34;4737452;30;20052;-78
2021/12/25 03:20:09;;;;;;;2.00;1.17;;;;;;;-3.47;90.65;101201.94;4741256;30;20368;-77
2021/12/25 03:22:39;;;;;;;0.98;0.90;;;;;;;-3.50;89.08;101205.16;4725625;30;20052;-78
2021/12/25 03:25:11;;;;;;;3.53;0.90;;;;;;;-3.51;90.87;101197.38;4720121;30;20048;-78
2021/12/25 03:27:42;;;;;;;2.72;1.02;;;;;;;-3.51;89.33;101217.97;4718064;30;20052;-77
2021/12/25 03:30:17;;;;;;;3.95;1.20;;;;;;;-3.54;89.88;101203.19;4740834;30;20212;-78
2021/12/25 03:32:45;;;;;;;2.70;1.00;;;;;;;-3.55;88.25;101206.56;4743341;30;20051;-77
2021/12/25 03:35:14;;;;;;;1.38;1.17;;;;;;;-3.58;88.31;101212.41;4730217;30;20169;-78
2021/12/25 03:37:43;;;;;;;3.22;1.23;;;;;;;-3.57;89.92;101218.47;4708915;30;20048;-77
2021/12/25 03:40:11;;;;;;;1.25;1.20;;;;;;;-3.59;90.16;101220.94;4703354;30;20059;-77
2021/12/25 03:42:40;;;;;;;1.15;1.00;;;;;;;-3.61;89.67;101217.38;4736759;30;20056;-77
2021/12/25 03:45:09;;;;;;;2.75;1.30;;;;;;;-3.62;90.97;101215.56;4735908;30;20153;-78
2021/12/25 03:47:39;;;;;;;0.80;0.80;;;;;;;-3.66;90.62;101213.59;4739243;30;20040;-78
2021/12/25 03:58:23;;;;;;;1.80;0.90;;;;;;;-3.66;89.67;101223.88;4741534;30;20441;-78
2021/12/25 04:00:59;;;;;;;3.10;1.20;;;;;;;-3.67;90.70;101227.25;4725898;30;20048;-79
2021/12/25 04:03:43;;;;;;;2.63;2.42;;;;;;;-3.67;91.62;101234.09;4738940;30;20063;-78
2021/12/25 04:06:12;;;;;;;2.50;1.10;;;;;;;-3.69;90.73;101239.13;4743579;30;20083;-77
2021/12/25 04:08:44;;;;;;;1.35;1.27;;;;;;;-3.68;92.79;101229.75;4720173;30;20055;-78
2021/12/25 04:11:25;;;;;;;3.30;1.38;;;;;;;-3.69;91.20;101233.09;4750515;30;20593;-77
2021/12/25 04:13:54;;;;;;;1.75;1.00;;;;;;;-3.69;92.61;101241.72;4739843;30;20052;-78
2021/12/25 04:16:26;;;;;;;1.20;1.00;;;;;;;-3.69;92.98;101233.09;4735709;30;20067;-77
2021/12/25 04:18:55;;;;;;;0.98;0.98;;;;;;;-3.69;92.36;101245.97;4720550;30;20052;-77
2021/12/25 04:21:24;;;;;;;1.00;0.90;;;;;;;-3.69;91.84;101251.13;4717678;30;20082;-77
2021/12/25 04:23:55;;;;;;;2.08;1.88;;;;;;;-3.71;90.19;101240.72;4731069;30;20055;-78
2021/12/25 04:26:25;;;;;;;3.03;1.58;;;;;;;-3.70;91.04;101237.38;4760714;30;20141;-77
2021/12/25 05:02:12;;;;;;;1.05;1.02;;;;;;;-3.70;94.48;101265.69;4735400;30;20044;-77
2021/12/25 05:05:19;;;;;;;;;;;;;;;-3.74;91.84;101256.88;4725282;30;20270;-77
2021/12/25 05:08:14;;;;;;;1.27;1.17;;;;;;;-3.75;93.62;101264.47;4716471;30;19938;-78
2021/12/25 05:10:42;;;;;;;3.20;1.52;;;;;;;-3.75;94.80;101264.47;4728434;30;20067;-77
2021/12/25 05:13:11;;;;;;;1.10;1.00;;;;;;;-3.75;95.48;101264.47;4699342;30;20051;-78
2021/12/25 05:15:41;;;;;;;4.70;1.40;;;;;;;-3.77;94.46;101272.09;4748695;30;20051;-77
2021/12/25 05:18:10;;;;;;;;;;;;;;;-3.80;93.31;101271.00;4733501;30;20511;-78
2021/12/25 05:20:39;;;;;;;2.03;1.10;;;;;;;-3.83;94.84;101271.69;4738254;30;19926;-77
2021/12/25 05:23:08;;;;;;;1.15;1.10;;;;;;;-3.88;95.61;101274.75;4735297;30;20044;-78
2021/12/25 05:25:38;;;;;;;0.93;0.93;;;;;;;-3.90;96.10;101284.06;4709582;30;20028;-77
2021/12/25 05:28:07;;;;;;;2.15;1.88;;;;;;;-3.96;97.61;101280.25;4720031;30;20067;-78
2021/12/25 05:30:36;;;;;;;6.57;1.15;;;;;;;-4.00;97.85;101282.53;4719430;30;20055;-77
2021/12/25 05:33:34;;;;;;;3.53;1.10;;;;;;;-4.04;98.42;101276.28;4698699;30;20290;-78
2021/12/25 05:36:12;;;;;;;1.65;1.30;;;;;;;-4.07;98.73;101283.78;4727567;30;20051;-77
2021/12/25 05:38:56;;;;;;;1.02;1.02;;;;;;;-4.14;97.94;101279.91;4719715;30;20507;-76
2021/12/25 05:41:30;;;;;;;2.50;1.15;;;;;;;-4.17;98.94;101278.81;4718778;30;20047;-79
2021/12/25 05:44:03;;;;;;;3.25;0.98;;;;;;;-4.18;98.52;101277.00;4730789;30;20044;-78
2021/12/25 05:46:52;;;;;;;1.65;1.05;;;;;;;-4.20;99.82;101283.72;4733167;30;20058;-77
2021/12/25 05:49:21;;;;;;;3.60;1.10;;;;;;;-4.25;100.00;101291.13;4747255;30;20196;-77
2021/12/25 05:52:14;;;;;;;2.47;1.10;;;;;;;-4.31;98.91;101290.69;4731272;30;20059;-78
2021/12/25 05:54:56;;;;;;;4.40;1.20;;;;;;;-4.32;99.52;101294.94;4734896;30;20067;-77
2021/12/25 05:57:45;;;;;;;2.05;1.30;;;;;;;-4.36;99.43;101282.66;4712254;30;20064;-77
2021/12/25 06:00:42;;;;;;;3.50;1.30;;;;;;;-4.38;99.86;101302.25;4700397;30;20069;-77
2021/12/25 06:03:11;;;;;;;3.47;1.27;;;;;;;-4.40;100.00;101295.22;4721248;30;20068;-77
2021/12/25 06:05:40;;;;;;;1.83;1.30;;;;;;;-4.41;100.00;101307.16;4724758;30;20033;-77
2021/12/25 06:08:11;;;;;;;1.73;1.25;;;;;;;-4.41;100.00;101307.16;4710143;30;20044;-78
2021/12/25 06:10:41;;;;;;;3.42;1.40;;;;;;;-4.41;100.00;101306.28;4692785;30;20060;-77
2021/12/25 06:13:16;;;;;;;2.72;1.65;;;;;;;-4.41;100.00;101308.84;4712264;30;20052;-77
2021/12/25 06:15:45;;;;;;;3.50;1.40;;;;;;;-4.43;100.00;101305.28;4701018;30;20516;-77
2021/12/25 06:18:25;;;;;;;2.33;0.93;;;;;;;-4.44;100.00;101312.09;4704380;30;20056;-77
2021/12/25 06:21:02;;;;;;;2.13;0.90;;;;;;;-4.45;100.00;101312.00;4737779;30;20056;-78
2021/12/25 06:23:52;;;;;;;3.63;1.23;;;;;;;-4.47;100.00;101313.56;4723720;30;20036;-77
2021/12/25 06:26:43;;;;;;;1.75;1.27;;;;;;;-4.46;100.00;101316.25;4708647;30;20060;-77
2021/12/25 06:29:31;;;;;;;0.90;0.90;;;;;;;-4.46;100.00;101321.41;4714160;30;20047;-77
2021/12/25 06:32:20;;;;;;;2.00;1.08;;;;;;;-4.49;100.00;101313.47;4718726;30;20507;-78
2021/12/25 06:35:07;;;;;;;1.50;1.40;;;;;;;-4.48;100.00;101315.22;4718833;30;20072;-76
2021/12/25 06:37:59;;;;;;;1.65;1.30;;;;;;;-4.50;100.00;101311.66;4715638;30;20071;-77
2021/12/25 06:40:52;;;;;;;3.63;1.00;;;;;;;-4.50;100.00;101329.66;4709820;30;20530;-77
2021/12/25 06:43:20;;;;;;;2.58;1.10;;;;;;;-4.50;100.00;101327.09;4684391;30;20049;-77
2021/12/25 06:45:49;;;;;;;3.50;1.80;;;;;;;-4.49;100.00;101328.88;4697006;30;20045;-78
2021/12/25 06:48:18;;;;;;;2.45;1.60;;;;;;;-4.49;100.00;101340.88;4717451;30;20078;-77
2021/12/25 06:51:05;;;;;;;2.45;1.25;;;;;;;-4.49;100.00;101334.03;4727841;30;20048;-77
2021/12/25 06:53:45;;;;;;;5.13;2.30;;;;;;;-4.48;100.00;101352.94;4705518;30;20040;-76
2021/12/25 06:56:32;;;;;;;1.55;1.05;;;;;;;-4.46;100.00;101348.78;4727140;30;20060;-77
2021/12/25 06:59:04;;;;;;;1.58;1.20;;;;;;;-4.47;100.00;101342.75;4684784;30;20052;-77
2021/12/25 07:01:37;;;;;;;2.20;1.40;;;;;;;-4.48;100.00;101350.34;4709743;30;20056;-77
2021/12/25 07:04:08;;;;;;;2.75;1.60;;;;;;;-4.48;100.00;101348.66;4701578;30;20264;-78
2021/12/25 07:06:56;;;;;;;3.97;1.50;;;;;;;-4.48;100.00;101364.09;4732951;30;20400;-77
2021/12/25 07:09:25;;;;;;;1.67;1.10;;;;;;;-4.48;100.00;101360.66;4712587;30;20503;-77
2021/12/25 07:12:00;;;;;;;2.60;1.50;;;;;;;-4.48;100.00;101358.06;4733001;30;20359;-77
2021/12/25 07:14:44;;;;;;;3.65;1.20;;;;;;;-4.49;100.00;101364.91;4721016;30;20064;-77
2021/12/25 07:17:33;;;;;;;2.78;1.40;;;;;;;-4.49;100.00;101376.88;4734148;30;20063;-77
2021/12/25 07:20:25;;;;;;;2.00;1.20;;;;;;;-4.49;100.00;101375.19;4696580;30;20066;-77
2021/12/25 07:23:15;;;;;;;2.47;1.00;;;;;;;-4.50;100.00;101368.25;4735399;30;20061;-79
2021/12/25 07:26:10;;;;;;;6.15;2.10;;;;;;;-4.49;100.00;101377.75;4722542;30;20581;-77
2021/12/25 07:28:45;;;;;;;6.82;4.38;;;;;;;-4.47;100.00;101381.34;4717321;30;20538;-77
2021/12/25 07:31:15;;;;;;;2.78;1.33;;;;;;;-4.47;100.00;101383.03;4698051;30;20052;-77
2021/12/25 07:33:44;;;;;;;2.38;1.25;;;;;;;-4.46;100.00;101384.78;4729663;30;20047;-76
2021/12/25 07:36:13;;;;;;;2.72;1.02;;;;;;;-4.44;100.00;101389.28;4745212;30;20051;-77
2021/12/25 07:38:44;;;;;;;3.90;1.25;;;;;;;-4.40;100.00;101385.25;4728609;30;20067;-77
2021/12/25 07:41:13;;;;;;;8.93;1.15;;;;;;;-4.37;100.00;101404.34;4740710;30;20050;-77
2021/12/25 07:43:42;;;;;;;2.78;1.70;;;;;;;-4.36;100.00;101393.28;4721133;30;20055;-77
2021/12/25 07:46:22;;;;;;;2.38;1.23;;;;;;;-4.33;100.00;101403.81;4746537;30;20503;-77
2021/12/25 07:48:51;;;;;;;2.28;1.27;;;;;;;-4.30;100.00;101390.28;4740373;30;20351;-78
2021/12/25 07:51:19;;;;;;;4.03;1.50;;;;;;;-4.28;100.00;101390.38;4734409;30;20048;-77
2021/12/25 07:53:48;;;;;;;2.65;1.45;;;;;;;-4.26;100.00;101397.41;4759619;30;20412;-78
2021/12/25 07:56:18;;;;;;;5.82;2.33;;;;;;;-4.29;100.00;101391.16;4717829;30;20040;-77
2021/12/25 07:58:46;;;;;;;2.25;1.50;;;;;;;-4.29;100.00;101404.03;4734547;30;20048;-77
2021/12/25 08:01:15;;;;;;;2.17;1.55;;;;;;;-4.29;100.00;101406.59;4735477;30;20056;-77
2021/12/25 08:03:44;;;;;;;1.75;1.48;;;;;;;-4.31;100.00;101404.81;4714847;30;20056;-77
2021/12/25 08:06:12;;;;;;;6.93;2.03;;;;;;;-4.31;100.00;101399.69;4704035;30;20066;-77
2021/12/25 08:08:42;;;;;;;6.07;2.03;;;;;;;-4.31;100.00;101397.09;4690487;30;20056;-77
2021/12/25 08:11:10;;;;;;;4.38;2.28;;;;;;;-4.29;100.00;101414.31;4687907;30;20098;-77
2021/12/25 08:13:39;;;;;;;6.38;2.85;;;;;;;-4.29;100.00;101410.09;4688222;30;20045;-77
2021/12/25 08:16:07;;;;;;;10.55;3.13;;;;;;;-4.31;100.00;101412.53;4707272;30;20049;-77
2021/12/25 08:18:36;;;;;;;7.05;3.22;;;;;;;-4.32;100.00;101412.44;4696751;30;20513;-77
2021/12/25 08:21:25;;;;;;;6.78;3.05;;;;;;;-4.32;100.00;101418.47;4683091;30;20536;-77
2021/12/25 08:24:13;;;;;;;8.18;3.22;;;;;;;-4.32;100.00;101413.31;4697040;30;20063;-77
2021/12/25 08:27:14;;;;;;;4.82;2.08;;;;;;;-4.34;100.00;101420.03;4677707;30;20061;-77
2021/12/25 08:30:21;;;;;;;6.82;3.72;;;;;;;-4.34;100.00;101426.88;4677834;30;20405;-77
2021/12/25 08:33:08;;;;;;;1.40;1.30;;;;;;;-4.32;100.00;101421.03;4708010;30;20423;-77
2021/12/25 08:35:55;;;;;;;2.63;1.13;;;;;;;-4.31;100.00;101424.50;4672710;30;20843;-77
2021/12/25 08:38:24;;;;;;;2.80;1.30;;;;;;;-4.28;100.00;101429.00;4724584;30;20064;-78
2021/12/25 08:40:54;;;;;;;4.63;1.60;;;;;;;-4.27;100.00;101428.19;4728111;30;20052;-78
2021/12/25 08:43:25;;;;;;;9.98;2.25;;;;;;;-4.28;100.00;101429.88;4742974;30;20043;-77
2021/12/25 08:46:14;;;;;;;1.75;1.52;;;;;;;-4.26;99.70;101437.72;4748427;30;20048;-77
2021/12/25 08:48:44;;;;;;;7.20;1.98;;;;;;;-4.25;99.55;101430.09;4748945;30;20055;-77
2021/12/25 08:51:14;;;;;;;8.10;4.22;;;;;;;-4.21;100.00;101436.38;4715264;30;20059;-77
2021/12/25 08:53:42;;;;;;;4.60;1.83;;;;;;;-4.19;100.00;101430.53;4759436;30;20518;-76
2021/12/25 08:56:11;;;;;;;4.57;1.80;;;;;;;-4.15;100.00;101429.09;4724430;30;20668;-77
2021/12/25 08:58:39;;;;;;;3.47;1.48;;;;;;;-4.14;100.00;101431.78;4745258;30;20048;-77
2021/12/25 09:01:09;;;;;;;4.07;1.40;;;;;;;-4.10;100.00;101440.59;4736460;30;20048;-78
2021/12/25 09:03:38;;;;;;;4.38;1.67;;;;;;;-4.09;100.00;101441.50;4736587;30;20044;-77
2021/12/25 09:06:06;;;;;;;4.45;1.42;;;;;;;-4.11;97.38;101438.81;4704592;30;20056;-77
2021/12/25 09:08:36;;;;;;;4.75;1.55;;;;;;;-4.07;97.86;101440.81;4691074;30;20071;-75
2021/12/25 09:11:04;;;;;;;2.97;1.40;;;;;;;-4.04;98.28;101446.19;4700316;30;20052;-77
2021/12/25 09:13:33;;;;;;;4.10;1.55;;;;;;;-3.99;98.48;101452.56;4746024;30;20518;-77
2021/12/25 09:16:01;;;;;;;5.05;2.10;;;;;;;-3.95;98.55;101454.56;4732153;30;20153;-76
2021/12/25 09:18:30;;;;;;;3.67;1.42;;;;;;;-3.90;97.27;101438.53;4732761;30;20297;-76
2021/12/25 09:20:59;;;;;;;2.45;1.80;;;;;;;-3.88;97.88;101440.44;4734939;30;20080;-77
2021/12/25 09:23:27;;;;;;;6.20;2.33;;;;;;;-3.84;95.24;101444.13;4698364;30;20430;-76
2021/12/25 09:25:56;;;;;;;4.68;2.88;;;;;;;-3.79;95.74;101450.50;4689911;30;20056;-77
2021/12/25 09:28:24;;;;;;;3.90;2.17;;;;;;;-3.73;96.83;101450.91;4727837;30;20020;-77
2021/12/25 09:30:53;;;;;;;3.60;1.80;;;;;;;-3.70;96.45;101453.72;4700303;30;20059;-78
2021/12/25 09:33:22;;;;;;;3.28;2.05;;;;;;;-3.64;97.28;101456.72;4731408;30;20068;-77
2021/12/25 09:35:51;;;;;;;7.72;2.10;;;;;;;-3.59;96.39;101455.38;4713714;30;20269;-78
2021/12/25 09:38:20;;;;;;;5.10;2.22;;;;;;;-3.56;95.22;101454.69;4711725;30;20048;-78
2021/12/25 09:40:52;;;;;;;3.38;1.98;;;;;;;-3.50;95.21;101451.63;4710008;30;20170;-77
2021/12/25 09:43:24;;;;;;;2.72;1.83;;;;;;;-3.47;93.80;101459.59;4745252;30;20056;-79
2021/12/25 09:45:59;;;;;;;6.55;2.63;;;;;;;-3.42;96.23;101458.19;4711408;30;20263;-79
2021/12/25 09:48:28;;;;;;;4.18;2.80;;;;;;;-3.38;95.37;101460.22;4745674;30;20051;-78
2021/12/25 09:50:57;;;;;;;4.32;2.17;;;;;;;-3.31;95.59;101474.41;4738138;30;20075;-78
2021/12/25 09:53:29;;;;;;;6.30;2.40;;;;;;;-3.30;93.37;101461.66;4688629;30;20079;-77
2021/12/25 09:55:57;;;;;;;5.10;2.78;;;;;;;-3.30;94.27;101466.81;4714043;30;21419;-79
2021/12/25 09:58:26;;;;;;;7.95;2.40;;;;;;;-3.26;93.19;101473.06;4734239;30;20045;-77
2021/12/25 10:00:57;;;;;;;2.55;2.20;;;;;;;-3.23;94.03;101469.00;4730685;30;20047;-78
2021/12/25 10:03:43;;;;;;;3.65;2.10;;;;;;;-3.23;92.03;101469.00;4740689;30;20067;-78
2021/12/25 10:06:28;;;;;;;5.07;2.72;;;;;;;-3.20;91.83;101476.06;4709513;30;20556;-78
2021/12/25 10:08:57;;;;;;;5.28;2.30;;;;;;;-3.18;94.75;101465.03;4723371;30;20272;-78
2021/12/25 10:11:27;;;;;;;3.97;2.38;;;;;;;-3.14;94.57;101471.31;4714735;30;20420;-79
2021/12/25 10:13:55;;;;;;;3.33;2.47;;;;;;;-3.10;93.93;101462.09;4713897;30;20058;-79
2021/12/25 10:16:31;;;;;;;3.70;2.80;;;;;;;-3.05;95.11;101476.22;4724121;30;20052;-77
2021/12/25 10:19:20;;;;;;;5.10;2.53;;;;;;;-3.02;94.37;101469.56;4720738;30;20281;-78
2021/12/25 10:22:04;;;;;;;7.28;3.17;;;;;;;-2.95;93.91;101463.13;4737907;30;20683;-77
2021/12/25 10:24:47;;;;;;;3.90;3.40;;;;;;;-2.94;91.77;101470.09;4714312;30;20059;-78
2021/12/25 10:27:20;;;;;;;2.92;2.45;;;;;;;-2.94;94.03;101460.66;4735417;30;20044;-78
2021/12/25 10:29:58;;;;;;;3.47;3.00;;;;;;;-2.89;93.98;101483.28;4722429;30;20056;-78
2021/12/25 10:32:30;;;;;;;3.70;2.85;;;;;;;-2.84;94.56;101482.81;4748491;30;20055;-77
2021/12/25 10:34:58;;;;;;;3.38;3.05;;;;;;;-2.79;94.37;101472.81;4723404;30;20048;-78
2021/12/25 10:37:27;;;;;;;5.30;3.63;;;;;;;-2.74;94.57;101466.28;4699463;30;20056;-77
2021/12/25 10:39:55;;;;;;;8.52;4.00;;;;;;;-2.70;94.57;101463.09;4688654;30;20044;-77
2021/12/25 10:42:33;;;;;;;4.43;2.83;;;;;;;-2.65;94.02;101468.56;4728378;30;20510;-77
2021/12/25 10:45:05;;;;;;;3.78;2.55;;;;;;;-2.62;93.78;101466.19;4756221;30;20055;-77
2021/12/25 10:47:34;;;;;;;4.03;2.50;;;;;;;-2.58;95.09;101463.91;4718515;30;20051;-78
2021/12/25 10:50:17;;;;;;;3.60;2.08;;;;;;;-2.56;93.25;101459.72;4694515;30;20060;-77
2021/12/25 10:52:56;;;;;;;5.43;2.47;;;;;;;-2.52;93.98;101452.22;4727639;30;20058;-78
2021/12/25 10:55:28;;;;;;;4.75;2.85;;;;;;;-2.49;95.06;101455.88;4698101;30;20519;-78
2021/12/25 10:57:59;;;;;;;3.58;2.60;;;;;;;-2.45;95.10;101457.88;4726360;30;20048;-78
2021/12/25 11:00:30;;;;;;;;;;;;;;;-2.43;92.12;101464.03;4738994;30;20048;-78
2021/12/25 11:03:08;;;;;;;8.23;3.40;;;;;;;-2.42;94.73;101458.09;4722300;30;20297;-77
2021/12/25 11:05:45;;;;;;;4.05;1.92;;;;;;;-2.39;93.91;101466.00;4729601;30;20055;-78
2021/12/25 11:08:23;;;;;;;9.02;2.42;;;;;;;-2.35;95.20;101460.25;4720458;30;20397;-78
2021/12/25 11:11:17;;;;;;;4.53;2.08;;;;;;;-2.27;95.29;101470.19;4717398;30;20051;-77
2021/12/25 11:13:48;;;;;;;2.75;1.70;;;;;;;-2.25;94.19;101463.41;4704053;30;20056;-77
2021/12/25 11:16:27;;;;;;;2.83;1.70;;;;;;;-2.24;94.30;101463.53;4704056;30;20598;-76
2021/12/25 11:19:09;;;;;;;2.65;1.75;;;;;;;-2.21;94.70;101461.16;4737781;30;20738;-76
2021/12/25 11:21:45;;;;;;;5.40;2.00;;;;;;;-2.18;93.53;101452.69;4748872;30;20062;-77
2021/12/25 11:24:14;;;;;;;4.18;2.33;;;;;;;-2.18;93.07;101470.78;4720533;30;20173;-78
2021/12/25 11:26:52;;;;;;;4.45;1.85;;;;;;;-2.16;93.31;101459.75;4706125;30;20048;-76
2021/12/25 11:29:30;;;;;;;3.63;2.40;;;;;;;-2.11;94.27;101454.00;4720554;30;20052;-77
2021/12/25 11:32:00;;;;;;;4.43;1.98;;;;;;;-2.11;93.33;101462.63;4726487;30;20562;-77
2021/12/25 11:34:29;;;;;;;;;;;;;;;-2.13;88.17;101458.19;4724232;30;20059;-77
2021/12/25 11:37:00;;;;;;;7.22;2.83;;;;;;;-2.12;91.94;101468.56;4724184;30;20336;-77
2021/12/25 11:39:30;;;;;;;6.10;2.20;;;;;;;-2.08;94.03;101455.09;4719406;30;20044;-78
2021/12/25 11:42:08;;;;;;;4.38;2.75;;;;;;;-2.03;93.36;101451.09;4711543;30;20044;-77
2021/12/25 11:44:45;;;;;;;7.43;3.20;;;;;;;-2.01;91.89;101456.38;4685246;30;20067;-77
2021/12/25 11:47:32;;;;;;;6.93;3.17;;;;;;;-2.01;91.60;101449.50;4737008;30;20067;-77
2021/12/25 11:50:10;;;;;;;6.18;2.47;;;;;;;-1.94;93.35;101455.97;4710523;30;20415;-77
2021/12/25 11:52:46;;;;;;;5.07;2.60;;;;;;;-1.91;94.14;101447.50;4717504;30;20063;-77
2021/12/25 11:58:39;;;;;;;2.95;2.00;;;;;;;-1.91;89.90;101452.66;4701047;30;20056;-75
2021/12/25 12:01:33;;;;;;;3.08;2.10;;;;;;;-1.96;87.81;101448.09;4728020;30;20059;-75
2021/12/25 12:04:12;;;;;;;3.95;2.20;;;;;;;-1.96;90.99;101458.44;4749632;30;20537;-74
2021/12/25 12:06:44;;;;;;;6.57;2.60;;;;;;;-1.96;91.78;101453.28;4753411;30;20063;-76
2021/12/25 12:09:15;;;;;;;4.88;2.58;;;;;;;-1.92;92.91;101454.38;4723973;30;20625;-75
2021/12/25 12:12:31;;;;;;;3.28;2.47;;;;;;;-1.92;90.80;101432.81;4726092;30;20196;-75
2021/12/25 12:15:19;;;;;;;6.63;2.40;;;;;;;-1.96;91.12;101440.34;4746465;30;20176;-74
2021/12/25 12:18:29;;;;;;;4.20;2.60;;;;;;;-2.02;90.17;101434.81;4743409;30;20724;-75
2021/12/25 12:21:11;;;;;;;5.60;2.55;;;;;;;-2.01;91.06;101444.34;4724328;30;20392;-75
2021/12/25 12:34:35;;;;;;;6.38;2.90;;;;;;;-1.99;89.38;101441.84;4584627;30;20363;-75
2021/12/25 12:37:18;;;;;;;3.60;2.60;;;;;;;-2.01;89.32;101446.03;4715996;30;20713;-76
2021/12/25 12:39:58;;;;;;;12.07;3.67;;;;;;;-2.01;91.10;101427.94;4672990;30;20048;-74
2021/12/25 12:42:47;;;;;;;5.43;3.10;;;;;;;-2.00;91.14;101429.75;4709168;30;20060;-75
2021/12/25 12:45:23;;;;;;;4.03;2.85;;;;;;;-1.98;91.71;101435.91;4714108;30;20431;-74
2021/12/25 12:48:21;;;;;;;6.10;3.78;;;;;;;-1.97;92.12;101438.59;4724263;30;21511;-74
2021/12/25 12:50:53;;;;;;;5.28;2.92;;;;;;;-1.92;92.21;101437.97;4716471;30;20056;-74
2021/12/25 12:53:24;;;;;;;4.55;1.83;;;;;;;-1.93;91.88;101449.09;4736180;30;20055;-74
2021/12/25 12:56:02;;;;;;;2.28;1.70;;;;;;;-1.93;92.86;101446.50;4719233;30;20056;-74
2021/12/25 12:58:31;;;;;;;5.93;2.00;;;;;;;-1.94;92.50;101437.00;4737130;30;20062;-75
2021/12/25 13:01:08;;;;;;;5.07;1.52;;;;;;;-1.93;93.33;101441.34;4691337;30;20100;-75
2021/12/25 13:03:37;;;;;;;4.57;1.77;;;;;;;-1.94;93.16;101437.88;4737319;30;20049;-75
2021/12/25 13:06:12;;;;;;;4.82;1.33;;;;;;;-1.93;94.08;101438.75;4707730;30;20055;-75
2021/12/25 13:08:43;;;;;;;2.45;1.38;;;;;;;-1.97;92.95;101438.59;4720321;30;20052;-74
2021/12/25 13:11:23;;;;;;;4.60;1.42;;;;;;;-1.98;92.51;101446.25;4740543;30;20071;-74
2021/12/25 13:13:56;;;;;;;4.18;2.05;;;;;;;-1.98;94.13;101447.13;4712651;30;20695;-75
2021/12/25 13:16:36;;;;;;;5.68;1.85;;;;;;;-1.98;93.82;101439.38;4722432;30;20083;-75
2021/12/25 13:19:06;;;;;;;5.03;1.60;;;;;;;-1.94;94.64;101437.00;4717747;30;20397;-74
2021/12/25 13:21:36;;;;;;;;;;;;;;;-1.95;92.79;101446.41;4724865;30;20059;-74
2021/12/25 13:24:13;;;;;;;2.53;1.30;;;;;;;-1.97;93.38;101443.75;4716710;30;19930;-75
2021/12/25 13:26:47;;;;;;;3.72;1.70;;;;;;;-2.00;91.65;101442.66;4727564;30;20056;-75
2021/12/25 13:29:23;;;;;;;4.32;1.83;;;;;;;-2.02;92.00;101437.41;4715031;30;20454;-74
2021/12/25 13:31:51;;;;;;;2.33;1.67;;;;;;;-2.02;92.56;101442.56;4718418;30;20051;-74
2021/12/25 13:34:23;;;;;;;1.63;1.45;;;;;;;-2.01;92.41;101448.63;4742412;30;20060;-75